createdAt,value
2022-10-27T00:01:03.612Z,98132.63
2022-10-27T00:03:33.043Z,98121.34
2022-10-27T00:06:06.260Z,98115.38
2022-10-27T00:08:34.715Z,98101.53
2022-10-27T00:11:04.292Z,98136.09
2022-10-27T00:13:33.286Z,98154.03
2022-10-27T00:16:03.156Z,98190.34
2022-10-27T00:18:33.114Z,98225.53
2022-10-27T00:21:02.332Z,98244.25
2022-10-27T00:23:31.465Z,98218.06
2022-10-27T00:26:00.295Z,98193.81
2022-10-27T00:28:29.377Z,98254.22
2022-10-27T00:31:02.176Z,98254.91
2022-10-27T00:33:30.468Z,98248.16
2022-10-27T00:36:04.590Z,98255.88
2022-10-27T00:38:32.759Z,98268.16
2022-10-27T00:41:00.738Z,98287.91
2022-10-27T00:43:30.435Z,98289.72
2022-10-27T00:46:02.898Z,98288.75
2022-10-27T00:48:33.443Z,98281.09
2022-10-27T00:51:04.972Z,98300.00
2022-10-27T00:53:34.514Z,98324.91
2022-10-27T00:56:03.280Z,98339.56
2022-10-27T00:58:31.693Z,98303.19
2022-10-27T01:00:59.848Z,98292.22
2022-10-27T01:03:27.813Z,98280.09
2022-10-27T01:05:58.715Z,98320.75
2022-10-27T01:08:28.475Z,98289.03
2022-10-27T01:10:56.518Z,98301.69
2022-10-27T01:13:25.392Z,98335.25
2022-10-27T01:16:03.197Z,98319.63
2022-10-27T01:18:41.086Z,98292.75
2022-10-27T01:21:47.290Z,98282.09
2022-10-27T01:24:43.234Z,98282.09
2022-10-27T01:27:32.101Z,98273.75
2022-10-27T01:30:09.348Z,98322.56
2022-10-27T01:32:50.903Z,98322.22
2022-10-27T01:35:26.247Z,98335.38
2022-10-27T01:38:02.611Z,98324.91
2022-10-27T01:40:36.954Z,98298.34
2022-10-27T01:43:08.901Z,98295.69
2022-10-27T01:45:39.941Z,98279.44
2022-10-27T01:48:10.911Z,98268.97
2022-10-27T01:50:50.737Z,98283.59
2022-10-27T01:53:25.167Z,98281.09
2022-10-27T01:56:08.227Z,98286.56
2022-10-27T01:58:54.556Z,98379.69
2022-10-27T02:01:36.813Z,98379.38
2022-10-27T02:04:13.865Z,98342.38
2022-10-27T02:06:50.042Z,98378.41
2022-10-27T02:09:25.965Z,98379.53
2022-10-27T02:11:56.258Z,98363.09
2022-10-27T02:14:24.476Z,98399.31
2022-10-27T02:16:55.185Z,98383.69
2022-10-27T02:19:28.546Z,98413.56
2022-10-27T02:22:00.714Z,98396.28
2022-10-27T02:24:29.355Z,98447.78
2022-10-27T02:27:00.801Z,98451.13
2022-10-27T02:29:34.428Z,98389.47
2022-10-27T02:32:06.001Z,98389.00
2022-10-27T02:34:37.145Z,98360.09
2022-10-27T02:37:06.592Z,98318.56
2022-10-27T02:39:34.900Z,98292.69
2022-10-27T02:42:03.761Z,98302.31
2022-10-27T02:44:31.819Z,98301.31
2022-10-27T02:47:01.232Z,98281.25
2022-10-27T02:49:29.777Z,98262.50
2022-10-27T02:51:59.132Z,98250.53
2022-10-27T02:54:36.298Z,98268.16
2022-10-27T02:57:05.173Z,98288.38
2022-10-27T02:59:33.097Z,98256.81
2022-10-27T03:02:01.076Z,98241.75
2022-10-27T03:04:29.207Z,98252.63
2022-10-27T03:06:58.436Z,98296.69
2022-10-27T03:09:26.658Z,98296.94
2022-10-27T03:11:54.560Z,98359.47
2022-10-27T03:14:22.466Z,98340.66
2022-10-27T03:16:50.667Z,98319.94
2022-10-27T03:19:18.734Z,98336.34
2022-10-27T03:21:46.828Z,98328.72
2022-10-27T03:24:16.300Z,98364.25
2022-10-27T03:26:44.226Z,98348.34
2022-10-27T03:29:12.274Z,98351.16
2022-10-27T03:31:40.090Z,98389.00
2022-10-27T03:34:08.209Z,98376.06
2022-10-27T03:36:36.275Z,98352.50
2022-10-27T03:39:07.399Z,98403.09
2022-10-27T03:41:40.217Z,98351.72
2022-10-27T03:44:10.448Z,98337.75
2022-10-27T03:46:40.883Z,98335.69
2022-10-27T03:49:11.719Z,98354.22
2022-10-27T03:51:41.478Z,98387.97
2022-10-27T03:54:11.990Z,98395.16
2022-10-27T03:56:43.595Z,98380.81
2022-10-27T03:59:27.015Z,98376.06
2022-10-27T04:01:59.999Z,98413.19
2022-10-27T04:04:32.975Z,98407.03
2022-10-27T04:07:03.523Z,98416.28
2022-10-27T04:09:32.825Z,98408.72
2022-10-27T04:12:15.863Z,98390.47
2022-10-27T04:14:47.099Z,98376.94
2022-10-27T04:17:17.919Z,98411.50
2022-10-27T04:19:49.580Z,98358.78
2022-10-27T04:22:19.926Z,98395.09
2022-10-27T04:24:49.970Z,98423.31
2022-10-27T04:27:21.602Z,98420.31
2022-10-27T04:29:51.122Z,98394.25
2022-10-27T04:32:21.718Z,98404.44
2022-10-27T04:34:51.859Z,98389.16
2022-10-27T04:37:22.531Z,98424.56
2022-10-27T04:39:52.713Z,98459.31
2022-10-27T04:45:32.354Z,98472.09
2022-10-27T04:48:08.911Z,98435.69
2022-10-27T04:50:38.748Z,98442.66
2022-10-27T04:53:08.595Z,98432.56
2022-10-27T04:55:38.258Z,98410.84
2022-10-27T04:58:09.843Z,98471.50
2022-10-27T05:00:40.248Z,98460.06
2022-10-27T05:03:11.118Z,98435.59
2022-10-27T05:05:43.039Z,98436.06
2022-10-27T05:08:17.434Z,98426.75
2022-10-27T05:10:48.233Z,98413.38
2022-10-27T05:13:21.716Z,98466.66
2022-10-27T05:15:51.559Z,98477.38
2022-10-27T05:18:21.657Z,98465.06
2022-10-27T05:20:52.180Z,98441.81
2022-10-27T05:23:22.551Z,98453.91
2022-10-27T05:25:53.603Z,98421.81
2022-10-27T05:28:27.107Z,98420.22
2022-10-27T05:30:59.638Z,98401.28
2022-10-27T05:33:31.497Z,98357.81
2022-10-27T05:36:00.792Z,98408.03
2022-10-27T05:38:33.272Z,98382.72
2022-10-27T05:41:04.015Z,98431.50
2022-10-27T05:43:37.581Z,98345.00
2022-10-27T05:49:58.091Z,98296.84
2022-10-27T05:52:30.229Z,98274.13
2022-10-27T05:55:00.201Z,98263.31
2022-10-27T05:57:34.304Z,98261.66
2022-10-27T06:00:10.521Z,98246.06
2022-10-27T06:02:40.517Z,98216.19
2022-10-27T06:05:10.114Z,98206.13
2022-10-27T06:07:39.915Z,98176.38
2022-10-27T06:10:13.409Z,98169.41
2022-10-27T06:12:42.704Z,98125.59
2022-10-27T06:15:15.094Z,98154.28
2022-10-27T06:17:46.152Z,98147.84
2022-10-27T06:20:16.090Z,98074.41
2022-10-27T06:22:49.089Z,98094.47
2022-10-27T06:25:19.407Z,98100.13
2022-10-27T06:27:50.002Z,98149.31
2022-10-27T06:30:21.679Z,98190.75
2022-10-27T06:32:52.458Z,98235.91
2022-10-27T06:35:23.286Z,98213.66
2022-10-27T06:37:53.257Z,98205.13
2022-10-27T06:40:23.140Z,98230.69
2022-10-27T06:43:09.367Z,98313.28
2022-10-27T06:45:40.896Z,98338.41
2022-10-27T06:48:12.047Z,98375.38
2022-10-27T06:50:40.954Z,98433.09
2022-10-27T06:53:09.954Z,98453.09
2022-10-27T06:55:39.093Z,98483.56
2022-10-27T06:58:07.799Z,98518.97
2022-10-27T07:00:37.825Z,98592.06
2022-10-27T07:05:41.419Z,98582.84
2022-10-27T07:08:10.695Z,98656.06
2022-10-27T07:10:38.771Z,98700.13
2022-10-27T07:13:07.013Z,98689.13
2022-10-27T07:15:38.488Z,98736.44
2022-10-27T07:18:13.745Z,98791.13
2022-10-27T07:20:41.799Z,98834.97
2022-10-27T07:23:11.924Z,98893.94
2022-10-27T07:25:40.376Z,98959.06
2022-10-27T07:28:09.375Z,99025.53
2022-10-27T07:30:39.252Z,99071.53
2022-10-27T07:33:07.911Z,99069.16
2022-10-27T07:35:37.526Z,99052.53
2022-10-27T07:41:41.277Z,99015.09
2022-10-27T07:44:34.584Z,99002.44
2022-10-27T07:47:02.683Z,99049.38
2022-10-27T07:49:30.785Z,99056.06
2022-10-27T07:52:00.154Z,99092.53
2022-10-27T07:54:28.156Z,99124.53
2022-10-27T07:56:56.302Z,99171.25
2022-10-27T07:59:24.386Z,99173.22
2022-10-27T08:04:40.157Z,99183.00
2022-10-27T08:07:09.445Z,99224.28
2022-10-27T08:09:37.619Z,99238.28
2022-10-27T08:12:06.242Z,99252.00
2022-10-27T08:14:34.280Z,99253.66
2022-10-27T08:17:04.900Z,99238.97
2022-10-27T08:19:33.149Z,99272.00
2022-10-27T08:22:01.131Z,99239.81
2022-10-27T08:24:30.604Z,99302.38
2022-10-27T08:26:58.672Z,99326.31
2022-10-27T08:29:27.316Z,99341.31
2022-10-27T08:31:55.428Z,99360.47
2022-10-27T08:34:23.416Z,99328.88
2022-10-27T08:36:51.312Z,99407.25
2022-10-27T08:39:19.143Z,99434.28
2022-10-27T08:41:57.628Z,99463.03
2022-10-27T08:44:28.826Z,99507.28
2022-10-27T08:46:59.162Z,99547.94
2022-10-27T08:49:33.550Z,99631.53
2022-10-27T08:52:07.545Z,99707.16
2022-10-27T08:54:35.532Z,99796.66
2022-10-27T08:57:07.231Z,99902.53
2022-10-27T08:59:39.200Z,100050.47
2022-10-27T09:02:29.223Z,100062.25
2022-10-27T09:05:25.290Z,100089.16
2022-10-27T09:08:02.121Z,100162.72
2022-10-27T09:10:44.720Z,100375.78
2022-10-27T09:13:29.987Z,100418.31
2022-10-27T09:16:03.207Z,100407.59
2022-10-27T09:19:32.563Z,100306.75
2022-10-27T09:22:08.156Z,100434.88
2022-10-27T09:24:39.124Z,100527.63
2022-10-27T09:27:09.284Z,100811.66
2022-10-27T09:29:40.295Z,100876.31
2022-10-27T09:32:27.350Z,100887.22
2022-10-27T09:35:03.344Z,101342.81
2022-10-27T09:37:34.042Z,101953.84
2022-10-27T09:40:02.368Z,102480.88
2022-10-27T09:42:30.833Z,102676.72
2022-10-27T09:45:02.161Z,102876.97
2022-10-27T09:47:36.458Z,102847.63
2022-10-27T09:50:07.262Z,102786.38
2022-10-27T09:52:40.371Z,102823.69
2022-10-27T09:55:11.327Z,102750.22
2022-10-27T09:57:42.165Z,102424.28
2022-10-27T10:00:27.479Z,102060.50
2022-10-27T10:05:34.465Z,101492.78
2022-10-27T10:08:26.188Z,101445.09
2022-10-27T10:10:59.142Z,101316.09
2022-10-27T10:13:42.482Z,101070.94
2022-10-27T10:16:16.110Z,100902.25
2022-10-27T10:18:58.842Z,100777.72
2022-10-27T10:21:27.682Z,100661.50
2022-10-27T10:23:59.102Z,100685.00
2022-10-27T10:26:31.194Z,100749.63
2022-10-27T10:29:11.542Z,100807.47
2022-10-27T10:31:43.206Z,100776.84
2022-10-27T10:34:33.508Z,100752.31
2022-10-27T10:37:01.763Z,100742.56
2022-10-27T10:39:32.098Z,100750.47
2022-10-27T10:42:18.402Z,100724.50
2022-10-27T10:44:49.350Z,100677.09
2022-10-27T10:47:29.202Z,100693.03
2022-10-27T10:50:01.156Z,100968.03
2022-10-27T10:52:36.462Z,101417.41
2022-10-27T10:55:08.751Z,101893.34
2022-10-27T10:57:42.249Z,102327.34
2022-10-27T11:00:18.781Z,102602.91
2022-10-27T11:02:59.115Z,102758.31
2022-10-27T11:05:32.228Z,102634.41
2022-10-27T11:08:00.885Z,102798.66
2022-10-27T11:10:32.863Z,102995.16
2022-10-27T11:13:05.712Z,103232.72
2022-10-27T11:15:40.533Z,103524.16
2022-10-27T11:18:16.719Z,103618.34
2022-10-27T11:20:47.609Z,103530.31
2022-10-27T11:23:19.245Z,103474.59
2022-10-27T11:25:48.804Z,103292.31
2022-10-27T11:28:22.734Z,103076.94
2022-10-27T11:30:59.615Z,102830.59
2022-10-27T11:33:38.557Z,102563.25
2022-10-27T11:36:13.405Z,102598.38
2022-10-27T11:38:51.837Z,102769.31
2022-10-27T11:41:27.450Z,102668.19
2022-10-27T11:44:08.751Z,102717.75
2022-10-27T11:46:44.378Z,102624.88
2022-10-27T11:49:42.233Z,102473.59
2022-10-27T11:52:18.714Z,102539.84
2022-10-27T11:54:47.798Z,102654.81
2022-10-27T11:57:39.059Z,102612.38
2022-10-27T12:00:20.068Z,102475.56
2022-10-27T12:03:07.217Z,102294.53
2022-10-27T12:05:45.641Z,102112.59
2022-10-27T12:08:25.886Z,102067.00
2022-10-27T12:14:19.885Z,102371.97
2022-10-27T12:16:53.602Z,102330.31
2022-10-27T12:19:30.617Z,102320.53
2022-10-27T12:22:06.861Z,102414.88
2022-10-27T12:24:40.843Z,102312.44
2022-10-27T12:27:16.963Z,102230.13
2022-10-27T12:29:48.425Z,101960.63
2022-10-27T12:32:30.780Z,101727.19
2022-10-27T12:35:04.359Z,101626.19
2022-10-27T12:37:41.881Z,101502.53
2022-10-27T12:40:16.554Z,101460.56
2022-10-27T12:42:51.220Z,101363.72
2022-10-27T12:45:37.440Z,101334.72
2022-10-27T12:48:15.538Z,101337.41
2022-10-27T12:50:52.089Z,101356.66
2022-10-27T12:53:33.880Z,101417.38
2022-10-27T12:56:07.075Z,101453.75
2022-10-27T12:58:47.738Z,101401.41
2022-10-27T13:01:23.443Z,101359.47
2022-10-27T13:04:23.727Z,101467.97
2022-10-27T13:07:14.097Z,101657.06
2022-10-27T13:10:12.343Z,101917.47
2022-10-27T13:12:53.830Z,102134.63
2022-10-27T13:15:46.064Z,102151.06
2022-10-27T13:18:25.403Z,102173.09
2022-10-27T13:21:02.081Z,102047.03
2022-10-27T13:23:40.288Z,101994.88
2022-10-27T13:26:20.294Z,102119.97
2022-10-27T13:28:53.443Z,102253.31
2022-10-27T13:31:23.756Z,102206.41
2022-10-27T13:34:05.101Z,102196.09
2022-10-27T13:37:22.230Z,101914.41
2022-10-27T13:39:50.551Z,101459.09
2022-10-27T13:44:54.059Z,101266.44
2022-10-27T13:47:27.998Z,101156.94
2022-10-27T13:50:00.938Z,101077.53
2022-10-27T13:52:31.518Z,101042.41
2022-10-27T13:55:24.581Z,100968.09
2022-10-27T13:58:43.077Z,100923.28
2022-10-27T14:01:35.508Z,100874.31
2022-10-27T14:04:15.428Z,100796.63
2022-10-27T14:06:54.655Z,100756.00
2022-10-27T14:09:38.843Z,100697.25
2022-10-27T14:13:44.388Z,100679.34
2022-10-27T14:15:57.559Z,100628.72
2022-10-27T14:18:38.636Z,100613.66
2022-10-27T14:21:19.248Z,100602.69
2022-10-27T14:23:47.745Z,100570.91
2022-10-27T14:26:30.071Z,100525.78
2022-10-27T14:29:01.464Z,100534.28
2022-10-27T14:31:31.361Z,100509.75
2022-10-27T14:34:16.931Z,100463.81
2022-10-27T14:36:45.420Z,100451.41
2022-10-27T14:39:30.129Z,100426.91
2022-10-27T14:42:03.039Z,100361.66
2022-10-27T14:44:34.084Z,100339.00
2022-10-27T14:47:05.314Z,100271.56
2022-10-27T14:49:40.854Z,100211.19
2022-10-27T14:52:17.420Z,100163.63
2022-10-27T14:54:51.707Z,100144.91
2022-10-27T14:57:34.317Z,100011.75
2022-10-27T15:01:05.079Z,100006.97
2022-10-27T15:03:42.366Z,99956.38
2022-10-27T15:06:19.282Z,99932.75
2022-10-27T15:08:52.040Z,99843.28
2022-10-27T15:11:23.459Z,99819.84
2022-10-27T15:13:53.664Z,99805.34
2022-10-27T15:16:25.372Z,99779.94
2022-10-27T15:19:24.646Z,99728.28
2022-10-27T15:26:26.120Z,99476.72
2022-10-27T15:28:55.598Z,99363.78
2022-10-27T15:31:24.405Z,99326.50
2022-10-27T15:34:00.093Z,99260.41
2022-10-27T15:36:28.219Z,99229.75
2022-10-27T15:38:57.790Z,99175.88
2022-10-27T15:41:28.015Z,99113.47
2022-10-27T15:44:17.891Z,99050.72
2022-10-27T15:46:46.939Z,98993.25
2022-10-27T15:49:27.016Z,98924.75
2022-10-27T15:51:57.000Z,98859.97
2022-10-27T15:54:33.868Z,98809.44
2022-10-27T15:57:04.012Z,98747.84
2022-10-27T15:59:33.280Z,98744.59
2022-10-27T16:02:04.038Z,98702.44
2022-10-27T16:04:35.409Z,98646.81
2022-10-27T16:07:31.379Z,98562.63
2022-10-27T16:10:01.448Z,98586.38
2022-10-27T16:12:37.189Z,98541.78
2022-10-27T16:15:08.223Z,98539.28
2022-10-27T16:17:47.650Z,98523.13
2022-10-27T16:20:19.026Z,98520.00
2022-10-27T16:26:28.685Z,98583.03
2022-10-27T16:29:01.124Z,98622.63
2022-10-27T16:31:30.611Z,98583.72
2022-10-27T16:34:40.171Z,98632.94
2022-10-27T16:41:05.413Z,98649.19
2022-10-27T16:43:37.535Z,98779.06
2022-10-27T16:46:06.372Z,98802.78
2022-10-27T16:48:37.916Z,98979.06
2022-10-27T16:51:07.554Z,99115.44
2022-10-27T16:53:35.759Z,99207.75
2022-10-27T16:56:07.200Z,99260.31
2022-10-27T16:58:40.304Z,99383.91
2022-10-27T17:01:12.239Z,99437.34
2022-10-27T17:03:40.525Z,99523.22
2022-10-27T17:06:09.313Z,99560.38
2022-10-27T17:08:40.351Z,99655.91
2022-10-27T17:11:10.131Z,99682.00
2022-10-27T17:13:40.350Z,99707.69
2022-10-27T17:16:17.233Z,99714.25
2022-10-27T17:18:47.878Z,99700.22
2022-10-27T17:21:16.179Z,99700.25
2022-10-27T17:23:45.893Z,99756.91
2022-10-27T17:26:16.935Z,99775.31
2022-10-27T17:28:48.671Z,99811.84
2022-10-27T17:31:20.985Z,99869.13
2022-10-27T17:33:53.261Z,99875.72
2022-10-27T17:36:25.084Z,99867.88
2022-10-27T17:38:53.158Z,99871.53
2022-10-27T17:41:23.575Z,99910.41
2022-10-27T17:43:53.004Z,99923.34
2022-10-27T17:46:23.089Z,99946.66
2022-10-27T17:48:54.189Z,99929.69
2022-10-27T17:51:24.018Z,99976.19
2022-10-27T17:53:53.536Z,100013.88
2022-10-27T17:56:23.305Z,100009.66
2022-10-27T17:58:54.439Z,100012.88
2022-10-27T18:01:24.147Z,100009.38
2022-10-27T18:03:53.874Z,99980.53
2022-10-27T18:06:24.286Z,99976.03
2022-10-27T18:09:05.475Z,100015.13
2022-10-27T18:11:36.314Z,100022.59
2022-10-27T18:14:11.248Z,100021.59
2022-10-27T18:16:45.909Z,99977.44
2022-10-27T18:19:15.449Z,99952.00
2022-10-27T18:21:45.027Z,99978.19
2022-10-27T18:24:15.365Z,99953.56
2022-10-27T18:26:46.242Z,99921.50
2022-10-27T18:29:17.699Z,99917.56
2022-10-27T18:31:50.125Z,99919.56
2022-10-27T18:34:18.385Z,99928.00
2022-10-27T18:36:49.353Z,99864.63
2022-10-27T18:39:20.774Z,99899.03
2022-10-27T18:41:50.240Z,99831.63
2022-10-27T18:44:20.505Z,99867.16
2022-10-27T18:46:48.669Z,99845.09
2022-10-27T18:49:36.474Z,99860.56
2022-10-27T18:52:08.331Z,99851.28
2022-10-27T18:54:37.978Z,99823.78
2022-10-27T18:57:27.866Z,99815.47
2022-10-27T19:00:12.062Z,99756.66
2022-10-27T19:02:40.158Z,99725.09
2022-10-27T19:05:10.899Z,99708.25
2022-10-27T19:07:42.263Z,99682.41
2022-10-27T19:10:22.268Z,99678.34
2022-10-27T19:12:52.559Z,99642.59
2022-10-27T19:15:22.498Z,99622.81
2022-10-27T19:17:53.195Z,99635.41
2022-10-27T19:20:21.433Z,99598.25
2022-10-27T19:22:50.103Z,99578.66
2022-10-27T19:25:20.908Z,99586.50
2022-10-27T19:27:49.138Z,99649.16
2022-10-27T19:30:21.517Z,99628.16
2022-10-27T19:32:53.135Z,99669.94
2022-10-27T19:35:21.874Z,99654.47
2022-10-27T19:37:52.422Z,99613.69
2022-10-27T19:40:24.736Z,99647.31
2022-10-27T19:42:52.776Z,99638.78
2022-10-27T19:45:24.982Z,99643.13
2022-10-27T19:47:54.960Z,99646.91
2022-10-27T19:50:25.385Z,99701.34
2022-10-27T19:52:56.671Z,99659.00
2022-10-27T19:55:25.272Z,99707.25
2022-10-27T19:57:53.821Z,99698.81
2022-10-27T20:00:22.441Z,99661.78
2022-10-27T20:02:51.211Z,99667.97
2022-10-27T20:05:23.826Z,99708.94
2022-10-27T20:07:53.712Z,99708.41
2022-10-27T20:10:22.552Z,99720.72
2022-10-27T20:12:51.113Z,99750.88
2022-10-27T20:15:23.876Z,99752.56
2022-10-27T20:17:52.043Z,99727.03
2022-10-27T20:20:21.953Z,99770.13
2022-10-27T20:22:52.477Z,99748.50
2022-10-27T20:25:20.703Z,99737.56
2022-10-27T20:27:52.339Z,99762.00
2022-10-27T20:30:20.591Z,99769.13
2022-10-27T20:32:48.696Z,99767.31
2022-10-27T20:35:16.942Z,99759.19
2022-10-27T20:37:47.060Z,99738.81
2022-10-27T20:40:28.342Z,99703.59
2022-10-27T20:43:01.277Z,99744.84
2022-10-27T20:45:30.890Z,99725.22
2022-10-27T20:47:58.983Z,99735.47
2022-10-27T20:50:27.213Z,99728.28
2022-10-27T20:52:56.672Z,99725.78
2022-10-27T20:55:24.640Z,99716.78
2022-10-27T20:57:52.923Z,99697.31
2022-10-27T21:00:22.757Z,99691.81
2022-10-27T21:02:51.177Z,99662.47
2022-10-27T21:07:48.234Z,99649.19
2022-10-27T21:10:19.188Z,99679.63
2022-10-27T21:12:50.351Z,99622.66
2022-10-27T21:15:18.422Z,99650.13
2022-10-27T21:20:16.095Z,99604.84
2022-10-27T21:22:44.669Z,99623.06
2022-10-27T21:25:20.211Z,99647.47
2022-10-27T21:27:55.351Z,99588.03
2022-10-27T21:32:54.247Z,99584.94
2022-10-27T21:35:27.552Z,99586.59
2022-10-27T21:38:01.077Z,99604.00
2022-10-27T21:40:29.051Z,99566.16
2022-10-27T21:42:59.836Z,99555.50
2022-10-27T21:45:29.113Z,99595.88
2022-10-27T21:47:59.954Z,99581.84
2022-10-27T21:50:40.453Z,99581.84
2022-10-27T21:53:09.247Z,99562.66
2022-10-27T21:58:13.104Z,99630.91
2022-10-27T22:00:44.209Z,99631.50
2022-10-27T22:03:20.640Z,99634.03
2022-10-27T22:05:55.583Z,99594.75
2022-10-27T22:08:30.250Z,99640.75
2022-10-27T22:11:12.132Z,99627.59
2022-10-27T22:13:46.923Z,99651.81
2022-10-27T22:16:16.842Z,99619.84
2022-10-27T22:18:49.689Z,99664.00
2022-10-27T22:21:19.253Z,99639.63
2022-10-27T22:23:51.398Z,99585.66
2022-10-27T22:26:21.163Z,99617.75
2022-10-27T22:28:54.314Z,99641.03
2022-10-27T22:31:27.512Z,99664.84
2022-10-27T22:33:56.705Z,99625.91
2022-10-27T22:36:27.394Z,99611.72
2022-10-27T22:38:57.419Z,99605.69
2022-10-27T22:41:28.764Z,99661.50
2022-10-27T22:44:05.461Z,99651.66
2022-10-27T22:46:34.681Z,99635.41
2022-10-27T22:49:03.700Z,99636.25
2022-10-27T22:51:31.984Z,99597.00
2022-10-27T22:54:02.644Z,99637.66
2022-10-27T22:56:32.743Z,99656.16
2022-10-27T22:59:03.820Z,99650.00
2022-10-27T23:01:34.226Z,99642.84
2022-10-27T23:04:03.942Z,99621.56
2022-10-27T23:06:37.066Z,99649.16
2022-10-27T23:09:07.293Z,99636.97
2022-10-27T23:11:38.738Z,99627.59
2022-10-27T23:28:52.576Z,99559.44
2022-10-27T23:31:24.613Z,99599.78
2022-10-27T23:34:42.175Z,99622.66
2022-10-27T23:37:49.015Z,99575.41
2022-10-27T23:40:17.260Z,99597.00
2022-10-27T23:42:45.556Z,99558.31
2022-10-27T23:45:13.655Z,99532.19
2022-10-27T23:47:44.189Z,99515.66
2022-10-27T23:50:51.669Z,99481.91
2022-10-27T23:53:23.031Z,99387.03
2022-10-27T23:55:57.864Z,99374.56
2022-10-27T23:58:26.185Z,99367.56
